createdAt,value
2019-05-28T00:01:14.699Z,97704.79
2019-05-28T00:03:43.901Z,97711.27
2019-05-28T00:06:13.099Z,97707.70
2019-05-28T00:08:42.324Z,97705.08
2019-05-28T00:11:11.541Z,97697.33
2019-05-28T00:13:40.787Z,97702.28
2019-05-28T00:16:10.321Z,97705.24
2019-05-28T00:18:39.544Z,97704.25
2019-05-28T00:21:08.772Z,97703.94
2019-05-28T00:23:37.948Z,97696.24
2019-05-28T00:26:07.165Z,97695.59
2019-05-28T00:28:36.349Z,97688.75
2019-05-28T00:31:05.549Z,97683.84
2019-05-28T00:33:34.775Z,97679.50
2019-05-28T00:36:03.987Z,97680.89
2019-05-28T00:38:33.220Z,97675.87
2019-05-28T00:41:02.490Z,97679.17
2019-05-28T00:43:31.725Z,97681.80
2019-05-28T00:46:00.908Z,97679.13
2019-05-28T00:48:30.133Z,97672.84
2019-05-28T00:50:59.295Z,97671.82
2019-05-28T00:53:28.554Z,97670.83
2019-05-28T00:55:58.782Z,97665.80
2019-05-28T00:58:28.611Z,97660.81
2019-05-28T01:00:57.963Z,97663.66
2019-05-28T01:03:27.202Z,97661.98
2019-05-28T01:05:56.413Z,97662.48
2019-05-28T01:08:25.593Z,97658.83
2019-05-28T01:10:54.812Z,97662.48
2019-05-28T01:13:24.049Z,97660.47
2019-05-28T01:15:53.244Z,97663.47
2019-05-28T01:18:22.493Z,97661.19
2019-05-28T01:20:51.758Z,97656.56
2019-05-28T01:23:20.954Z,97662.42
2019-05-28T01:25:50.164Z,97656.16
2019-05-28T01:28:19.380Z,97659.58
2019-05-28T01:30:56.244Z,97656.81
2019-05-28T01:33:19.584Z,97660.81
2019-05-28T01:35:48.996Z,97660.32
2019-05-28T01:38:18.172Z,97661.87
2019-05-28T01:40:47.459Z,97670.09
2019-05-28T01:43:16.669Z,97673.06
2019-05-28T01:45:45.919Z,97669.25
2019-05-28T01:48:15.091Z,97665.31
2019-05-28T01:50:44.286Z,97675.30
2019-05-28T01:53:13.514Z,97677.05
2019-05-28T01:55:42.802Z,97666.33
2019-05-28T01:58:11.995Z,97666.27
2019-05-28T02:00:41.275Z,97658.89
2019-05-28T02:03:10.493Z,97658.42
2019-05-28T02:05:39.647Z,97661.33
2019-05-28T02:08:08.951Z,97658.81
2019-05-28T02:10:38.139Z,97654.92
2019-05-28T02:13:07.316Z,97658.06
2019-05-28T02:15:36.597Z,97662.55
2019-05-28T02:18:05.842Z,97661.56
2019-05-28T02:20:34.996Z,97664.43
2019-05-28T02:23:05.596Z,97669.97
2019-05-28T02:25:34.754Z,97666.95
2019-05-28T02:28:03.945Z,97666.97
2019-05-28T02:30:33.096Z,97666.30
2019-05-28T02:33:02.362Z,97664.00
2019-05-28T02:35:31.535Z,97667.64
2019-05-28T02:38:00.820Z,97667.33
2019-05-28T02:40:29.932Z,97671.30
2019-05-28T02:42:59.350Z,97670.62
2019-05-28T02:45:28.634Z,97673.65
2019-05-28T02:47:57.892Z,97668.47
2019-05-28T02:50:47.370Z,97664.31
2019-05-28T02:53:16.647Z,97671.30
2019-05-28T02:55:47.717Z,97667.45
2019-05-28T02:58:19.753Z,97665.98
2019-05-28T03:00:50.399Z,97672.98
2019-05-28T03:03:22.955Z,97676.48
2019-05-28T03:05:54.733Z,97681.48
2019-05-28T03:08:26.247Z,97681.28
2019-05-28T03:11:03.121Z,97679.53
2019-05-28T03:13:27.031Z,97686.78
2019-05-28T03:15:59.475Z,97685.49
2019-05-28T03:18:30.272Z,97686.13
2019-05-28T03:21:02.456Z,97686.51
2019-05-28T03:23:33.692Z,97683.61
2019-05-28T03:26:02.947Z,97686.76
2019-05-28T03:28:32.630Z,97677.69
2019-05-28T03:31:01.914Z,97673.03
2019-05-28T03:33:31.271Z,97675.41
2019-05-28T03:36:01.894Z,97677.13
2019-05-28T03:38:32.674Z,97677.97
2019-05-28T03:41:01.918Z,97672.42
2019-05-28T03:43:31.102Z,97681.73
2019-05-28T03:46:00.442Z,97681.48
2019-05-28T03:48:29.742Z,97680.53
2019-05-28T03:50:58.969Z,97687.00
2019-05-28T03:53:28.171Z,97687.36
2019-05-28T03:55:57.442Z,97691.45
2019-05-28T03:58:26.610Z,97690.67
2019-05-28T04:00:55.829Z,97690.48
2019-05-28T04:03:25.012Z,97692.81
2019-05-28T04:05:54.237Z,97695.45
2019-05-28T04:08:23.459Z,97695.02
2019-05-28T04:10:52.672Z,97697.42
2019-05-28T04:13:21.855Z,97685.59
2019-05-28T04:15:51.058Z,97685.59
2019-05-28T04:18:20.246Z,97699.30
2019-05-28T04:20:49.521Z,97698.17
2019-05-28T04:23:18.930Z,97704.46
2019-05-28T04:25:48.184Z,97699.77
2019-05-28T04:28:17.426Z,97703.52
2019-05-28T04:30:46.645Z,97705.48
2019-05-28T04:33:15.820Z,97711.08
2019-05-28T04:35:45.085Z,97721.00
2019-05-28T04:38:14.302Z,97717.97
2019-05-28T04:40:43.545Z,97721.06
2019-05-28T04:43:12.792Z,97721.02
2019-05-28T04:45:42.062Z,97720.67
2019-05-28T04:48:11.309Z,97718.97
2019-05-28T04:50:40.550Z,97728.33
2019-05-28T04:53:09.827Z,97725.93
2019-05-28T04:55:39.197Z,97728.38
2019-05-28T04:58:08.503Z,97733.88
2019-05-28T05:00:37.856Z,97741.59
2019-05-28T05:03:07.088Z,97736.70
2019-05-28T05:05:36.353Z,97735.63
2019-05-28T05:08:05.577Z,97732.45
2019-05-28T05:10:34.826Z,97733.67
2019-05-28T05:13:04.031Z,97733.95
2019-05-28T05:15:33.440Z,97734.89
2019-05-28T05:18:02.817Z,97730.45
2019-05-28T05:20:31.996Z,97735.23
2019-05-28T05:23:01.212Z,97736.83
2019-05-28T05:25:30.436Z,97742.67
2019-05-28T05:27:59.629Z,97742.45
2019-05-28T05:30:28.835Z,97739.30
2019-05-28T05:33:18.277Z,97728.23
2019-05-28T05:35:29.058Z,97727.66
2019-05-28T05:37:58.331Z,97730.19
2019-05-28T05:40:27.771Z,97734.35
2019-05-28T05:42:56.991Z,97738.20
2019-05-28T05:45:26.184Z,97736.91
2019-05-28T05:47:55.412Z,97731.63
2019-05-28T05:50:24.587Z,97728.52
2019-05-28T05:52:53.786Z,97726.98
2019-05-28T05:55:22.960Z,97733.73
2019-05-28T05:57:52.180Z,97734.46
2019-05-28T06:00:22.196Z,97734.89
2019-05-28T06:02:51.425Z,97727.89
2019-05-28T06:05:20.685Z,97733.36
2019-05-28T06:07:49.952Z,97734.98
2019-05-28T06:10:19.233Z,97735.87
2019-05-28T06:12:48.457Z,97749.64
2019-05-28T06:15:17.653Z,97743.53
2019-05-28T06:17:46.829Z,97746.02
2019-05-28T06:20:16.381Z,97748.33
2019-05-28T06:22:45.592Z,97743.66
2019-05-28T06:25:14.928Z,97747.84
2019-05-28T06:27:44.133Z,97741.59
2019-05-28T06:30:13.943Z,97739.14
2019-05-28T06:32:43.129Z,97745.45
2019-05-28T06:35:12.562Z,97741.11
2019-05-28T06:37:41.760Z,97738.75
2019-05-28T06:40:11.190Z,97741.83
2019-05-28T06:42:40.677Z,97748.25
2019-05-28T06:45:10.047Z,97746.08
2019-05-28T06:47:43.888Z,97758.50
2019-05-28T06:50:12.237Z,97755.88
2019-05-28T06:52:41.901Z,97756.41
2019-05-28T06:55:11.316Z,97752.33
2019-05-28T06:57:40.524Z,97745.19
2019-05-28T07:00:10.362Z,97744.87
2019-05-28T07:02:39.601Z,97745.17
2019-05-28T07:05:09.170Z,97751.20
2019-05-28T07:07:38.416Z,97760.41
2019-05-28T07:10:08.205Z,97769.59
2019-05-28T07:12:37.452Z,97764.98
2019-05-28T07:15:07.602Z,97771.65
2019-05-28T07:17:36.800Z,97763.61
2019-05-28T07:20:06.785Z,97760.44
2019-05-28T07:22:36.120Z,97752.95
2019-05-28T07:25:05.614Z,97749.73
2019-05-28T07:27:34.846Z,97750.14
2019-05-28T07:30:04.318Z,97749.04
2019-05-28T07:32:33.551Z,97753.53
2019-05-28T07:35:03.107Z,97762.69
2019-05-28T07:37:32.457Z,97759.77
2019-05-28T07:40:01.688Z,97764.44
2019-05-28T07:42:33.063Z,97763.36
2019-05-28T07:45:02.210Z,97764.84
2019-05-28T07:47:31.545Z,97764.89
2019-05-28T07:50:00.721Z,97763.73
2019-05-28T07:52:29.972Z,97762.61
2019-05-28T07:54:59.213Z,97770.00
2019-05-28T07:57:28.457Z,97772.81
2019-05-28T07:59:57.699Z,97770.03
2019-05-28T08:02:26.950Z,97778.14
2019-05-28T08:04:56.150Z,97783.42
2019-05-28T08:07:25.450Z,97782.13
2019-05-28T08:09:54.622Z,97784.02
2019-05-28T08:12:23.826Z,97788.70
2019-05-28T08:14:53.032Z,97781.38
2019-05-28T08:17:22.240Z,97785.14
2019-05-28T08:19:51.442Z,97779.65
2019-05-28T08:22:20.655Z,97778.98
2019-05-28T08:24:49.882Z,97778.98
2019-05-28T08:27:19.176Z,97782.77
2019-05-28T08:29:48.355Z,97776.80
2019-05-28T08:32:17.622Z,97777.63
2019-05-28T08:35:02.139Z,97778.78
2019-05-28T08:37:17.862Z,97786.41
2019-05-28T08:39:47.052Z,97779.44
2019-05-28T08:42:16.261Z,97787.12
2019-05-28T08:44:45.515Z,97787.56
2019-05-28T08:47:14.780Z,97790.20
2019-05-28T08:49:44.013Z,97797.42
2019-05-28T08:52:13.204Z,97797.80
2019-05-28T08:54:42.421Z,97796.12
2019-05-28T08:57:11.598Z,97805.79
2019-05-28T08:59:40.796Z,97800.81
2019-05-28T09:02:26.315Z,97805.80
2019-05-28T09:04:41.174Z,97803.47
2019-05-28T09:07:10.355Z,97805.80
2019-05-28T09:09:39.575Z,97809.12
2019-05-28T09:12:09.719Z,97800.77
2019-05-28T09:14:54.984Z,97810.28
2019-05-28T09:17:10.107Z,97803.77
2019-05-28T09:19:39.381Z,97805.77
2019-05-28T09:22:24.419Z,97808.09
2019-05-28T09:24:39.717Z,97806.76
2019-05-28T09:27:09.002Z,97806.78
2019-05-28T09:29:38.244Z,97803.45
2019-05-28T09:32:07.578Z,97807.09
2019-05-28T09:34:36.776Z,97810.39
2019-05-28T09:37:05.952Z,97813.11
2019-05-28T09:39:35.257Z,97800.11
2019-05-28T09:42:04.597Z,97803.77
2019-05-28T09:44:33.806Z,97800.09
2019-05-28T09:47:03.041Z,97807.59
2019-05-28T09:49:32.243Z,97809.08
2019-05-28T09:52:01.447Z,97810.77
2019-05-28T09:54:30.709Z,97815.44
2019-05-28T09:56:59.897Z,97818.09
2019-05-28T09:59:41.040Z,97825.24
2019-05-28T10:02:00.133Z,97821.42
2019-05-28T10:04:45.678Z,97821.55
2019-05-28T10:07:00.402Z,97823.98
2019-05-28T10:09:29.574Z,97823.97
2019-05-28T10:11:58.890Z,97825.73
2019-05-28T10:14:28.125Z,97817.61
2019-05-28T10:16:57.390Z,97823.22
2019-05-28T10:19:26.629Z,97826.99
2019-05-28T10:21:55.978Z,97827.75
2019-05-28T10:24:25.195Z,97826.30
2019-05-28T10:26:54.453Z,97832.91
2019-05-28T10:29:23.681Z,97837.66
2019-05-28T10:31:52.866Z,97832.95
2019-05-28T10:34:22.067Z,97830.20
2019-05-28T10:36:51.322Z,97832.49
2019-05-28T10:39:20.509Z,97845.48
2019-05-28T10:41:49.708Z,97842.44
2019-05-28T10:44:18.913Z,97848.67
2019-05-28T10:46:48.150Z,97848.69
2019-05-28T10:49:17.404Z,97857.28
2019-05-28T10:51:46.623Z,97858.31
2019-05-28T10:54:15.802Z,97866.08
2019-05-28T10:56:45.073Z,97861.92
2019-05-28T10:59:14.272Z,97860.83
2019-05-28T11:01:43.506Z,97866.84
2019-05-28T11:04:12.716Z,97870.56
2019-05-28T11:06:51.547Z,97868.58
2019-05-28T11:09:12.995Z,97879.19
2019-05-28T11:11:42.267Z,97872.59
2019-05-28T11:14:11.571Z,97877.71
2019-05-28T11:16:40.885Z,97873.45
2019-05-28T11:19:10.085Z,97877.36
2019-05-28T11:21:39.298Z,97874.85
2019-05-28T11:24:08.469Z,97881.31
2019-05-28T11:26:37.660Z,97881.38
2019-05-28T11:29:06.884Z,97881.55
2019-05-28T11:31:36.090Z,97890.55
2019-05-28T11:34:05.650Z,97897.00
2019-05-28T11:36:34.846Z,97891.63
2019-05-28T11:39:06.383Z,97892.58
2019-05-28T11:41:42.052Z,97892.50
2019-05-28T11:44:06.902Z,97893.14
2019-05-28T11:46:36.217Z,97893.74
2019-05-28T11:49:05.591Z,97894.27
2019-05-28T11:51:34.777Z,97894.59
2019-05-28T11:54:04.103Z,97891.98
2019-05-28T11:56:33.245Z,97887.38
2019-05-28T11:59:02.477Z,97899.11
2019-05-28T12:01:35.130Z,97890.19
2019-05-28T12:04:02.624Z,97885.73
2019-05-28T12:06:37.941Z,97891.52
2019-05-28T12:09:02.921Z,97889.97
2019-05-28T12:11:32.264Z,97892.64
2019-05-28T12:14:01.581Z,97895.31
2019-05-28T12:16:30.769Z,97893.89
2019-05-28T12:19:00.033Z,97896.07
2019-05-28T12:21:29.208Z,97892.13
2019-05-28T12:23:58.472Z,97885.92
2019-05-28T12:26:27.690Z,97889.87
2019-05-28T12:28:56.962Z,97884.63
2019-05-28T12:31:26.394Z,97888.77
2019-05-28T12:33:55.634Z,97887.30
2019-05-28T12:36:24.799Z,97884.61
2019-05-28T12:38:54.859Z,97887.23
2019-05-28T12:41:24.078Z,97880.41
2019-05-28T12:43:53.278Z,97887.55
2019-05-28T12:46:22.728Z,97885.41
2019-05-28T12:48:51.987Z,97893.34
2019-05-28T12:51:21.177Z,97891.57
2019-05-28T12:53:51.509Z,97883.75
2019-05-28T12:56:21.082Z,97880.99
2019-05-28T12:58:50.405Z,97881.44
2019-05-28T13:01:19.673Z,97872.69
2019-05-28T13:03:51.875Z,97872.34
2019-05-28T13:06:20.136Z,97883.54
2019-05-28T13:08:49.324Z,97876.77
2019-05-28T13:11:18.597Z,97875.48
2019-05-28T13:13:47.799Z,97877.72
2019-05-28T13:16:17.077Z,97874.83
2019-05-28T13:18:46.292Z,97875.11
2019-05-28T13:21:15.535Z,97870.50
2019-05-28T13:23:44.771Z,97874.61
2019-05-28T13:26:14.835Z,97872.91
2019-05-28T13:28:44.131Z,97871.19
2019-05-28T13:31:13.412Z,97870.00
2019-05-28T13:33:42.654Z,97874.63
2019-05-28T13:36:11.912Z,97882.45
2019-05-28T13:38:42.826Z,97870.23
2019-05-28T13:41:12.245Z,97882.37
2019-05-28T13:43:41.474Z,97877.13
2019-05-28T13:46:10.731Z,97878.62
2019-05-28T13:48:40.037Z,97879.14
2019-05-28T13:51:09.265Z,97879.88
2019-05-28T13:53:38.454Z,97885.95
2019-05-28T13:56:07.718Z,97883.26
2019-05-28T13:58:36.993Z,97883.08
2019-05-28T14:01:06.261Z,97886.66
2019-05-28T14:03:35.465Z,97887.56
2019-05-28T14:06:04.771Z,97892.33
2019-05-28T14:08:45.470Z,97893.64
2019-05-28T14:11:04.954Z,97888.80
2019-05-28T14:13:34.333Z,97883.40
2019-05-28T14:16:04.210Z,97885.38
2019-05-28T14:18:33.460Z,97890.48
2019-05-28T14:21:02.689Z,97890.42
2019-05-28T14:23:31.921Z,97878.94
2019-05-28T14:26:01.173Z,97876.83
2019-05-28T14:28:30.547Z,97873.57
2019-05-28T14:31:00.700Z,97870.13
2019-05-28T14:33:29.972Z,97880.61
2019-05-28T14:35:59.242Z,97874.82
2019-05-28T14:38:28.465Z,97885.22
2019-05-28T14:40:57.762Z,97879.12
2019-05-28T14:43:27.017Z,97887.71
2019-05-28T14:45:56.246Z,97887.44
2019-05-28T14:48:25.466Z,97885.62
2019-05-28T14:50:54.965Z,97881.13
2019-05-28T14:53:24.203Z,97876.77
2019-05-28T14:55:53.626Z,97890.44
2019-05-28T14:58:22.973Z,97892.45
2019-05-28T15:00:52.250Z,97890.61
2019-05-28T15:03:21.425Z,97894.92
2019-05-28T15:05:50.664Z,97897.84
2019-05-28T15:08:19.966Z,97893.02
2019-05-28T15:10:49.175Z,97903.59
2019-05-28T15:13:18.405Z,97903.08
2019-05-28T15:15:47.688Z,97905.31
2019-05-28T15:18:16.889Z,97911.70
2019-05-28T15:20:46.101Z,97913.16
2019-05-28T15:23:15.311Z,97914.08
2019-05-28T15:25:44.482Z,97921.66
2019-05-28T15:28:13.722Z,97923.38
2019-05-28T15:30:42.954Z,97919.23
2019-05-28T15:33:12.216Z,97917.90
2019-05-28T15:35:41.448Z,97922.95
2019-05-28T15:38:10.603Z,97926.58
2019-05-28T15:40:39.802Z,97929.61
2019-05-28T15:43:09.022Z,97925.80
2019-05-28T15:45:38.250Z,97931.07
2019-05-28T15:48:07.507Z,97932.16
2019-05-28T15:50:36.758Z,97936.83
2019-05-28T15:53:05.968Z,97946.39
2019-05-28T15:55:35.184Z,97944.65
2019-05-28T15:58:04.389Z,97946.09
2019-05-28T16:00:33.671Z,97951.17
2019-05-28T16:03:02.886Z,97958.30
2019-05-28T16:05:32.128Z,97953.84
2019-05-28T16:08:01.293Z,97960.66
2019-05-28T16:10:30.506Z,97955.67
2019-05-28T16:12:59.782Z,97954.69
2019-05-28T16:15:29.030Z,97961.69
2019-05-28T16:17:58.325Z,97968.44
2019-05-28T16:20:27.671Z,97964.92
2019-05-28T16:22:56.928Z,97962.50
2019-05-28T16:25:26.173Z,97970.66
2019-05-28T16:27:55.575Z,97977.34
2019-05-28T16:30:25.149Z,97976.27
2019-05-28T16:32:54.384Z,97983.90
2019-05-28T16:35:23.702Z,97985.11
2019-05-28T16:37:52.959Z,97986.86
2019-05-28T16:40:22.294Z,97987.61
2019-05-28T16:42:51.558Z,97990.30
2019-05-28T16:45:21.178Z,97989.73
2019-05-28T16:47:50.528Z,97993.73
2019-05-28T16:50:19.970Z,97991.64
2019-05-28T16:52:49.162Z,97990.85
2019-05-28T16:55:18.539Z,97992.64
2019-05-28T16:57:47.784Z,97994.92
2019-05-28T17:00:18.529Z,97990.72
2019-05-28T17:02:47.817Z,97996.77
2019-05-28T17:05:17.708Z,97992.05
2019-05-28T17:07:46.964Z,97994.77
2019-05-28T17:10:31.552Z,98006.47
2019-05-28T17:12:47.412Z,98002.44
2019-05-28T17:15:17.227Z,98007.81
2019-05-28T17:17:46.830Z,98011.73
2019-05-28T17:20:17.116Z,98014.23
2019-05-28T17:22:46.445Z,98013.09
2019-05-28T17:25:15.992Z,98018.64
2019-05-28T17:27:45.242Z,98024.80
2019-05-28T17:30:19.161Z,98020.52
2019-05-28T17:32:46.409Z,98021.02
2019-05-28T17:35:15.945Z,98025.81
2019-05-28T17:37:45.172Z,98021.52
2019-05-28T17:40:14.480Z,98029.31
2019-05-28T17:42:43.752Z,98034.27
2019-05-28T17:45:13.412Z,98034.71
2019-05-28T17:47:44.369Z,98034.71
2019-05-28T17:50:13.950Z,98042.12
2019-05-28T17:52:43.318Z,98042.12
2019-05-28T17:55:12.778Z,98057.45
2019-05-28T17:57:41.991Z,98054.11
2019-05-28T18:00:11.481Z,98056.73
2019-05-28T18:02:41.153Z,98060.09
2019-05-28T18:05:10.709Z,98061.11
2019-05-28T18:07:39.924Z,98062.47
2019-05-28T18:10:10.428Z,98065.56
2019-05-28T18:12:39.729Z,98062.27
2019-05-28T18:15:09.419Z,98073.60
2019-05-28T18:17:38.922Z,98072.95
2019-05-28T18:20:09.229Z,98076.92
2019-05-28T18:22:38.482Z,98080.26
2019-05-28T18:25:07.961Z,98091.50
2019-05-28T18:27:37.347Z,98090.31
2019-05-28T18:30:06.974Z,98099.70
2019-05-28T18:32:36.399Z,98101.19
2019-05-28T18:35:06.444Z,98099.14
2019-05-28T18:37:35.792Z,98102.17
2019-05-28T18:40:06.227Z,98106.67
2019-05-28T18:42:35.489Z,98113.02
2019-05-28T18:45:05.208Z,98116.52
2019-05-28T18:47:34.587Z,98114.70
2019-05-28T18:50:04.303Z,98116.83
2019-05-28T18:52:33.510Z,98132.70
2019-05-28T18:55:03.995Z,98135.19
2019-05-28T18:57:33.656Z,98136.16
2019-05-28T19:00:02.936Z,98141.43
2019-05-28T19:02:32.295Z,98140.28
2019-05-28T19:05:01.539Z,98147.64
2019-05-28T19:07:30.759Z,98151.58
2019-05-28T19:10:00.068Z,98155.30
2019-05-28T19:12:29.286Z,98158.19
2019-05-28T19:14:58.553Z,98160.45
2019-05-28T19:17:27.808Z,98164.37
2019-05-28T19:19:57.069Z,98171.11
2019-05-28T19:22:26.290Z,98174.00
2019-05-28T19:24:57.383Z,98178.70
2019-05-28T19:27:26.858Z,98181.73
2019-05-28T19:29:56.331Z,98187.22
2019-05-28T19:32:25.562Z,98185.69
2019-05-28T19:34:55.044Z,98190.77
2019-05-28T19:37:24.463Z,98198.36
2019-05-28T19:39:53.932Z,98204.59
2019-05-28T19:42:23.229Z,98202.67
2019-05-28T19:44:52.565Z,98208.28
2019-05-28T19:47:21.866Z,98212.74
2019-05-28T19:49:51.162Z,98214.28
2019-05-28T19:52:20.414Z,98222.02
2019-05-28T19:54:49.626Z,98222.02
2019-05-28T19:57:18.874Z,98222.88
2019-05-28T19:59:48.176Z,98225.94
2019-05-28T20:02:17.461Z,98228.52
2019-05-28T20:04:46.684Z,98239.52
2019-05-28T20:07:15.883Z,98236.69
2019-05-28T20:09:45.224Z,98251.33
2019-05-28T20:12:14.525Z,98251.16
2019-05-28T20:14:43.873Z,98255.45
2019-05-28T20:17:13.402Z,98254.59
2019-05-28T20:19:42.695Z,98261.51
2019-05-28T20:22:12.252Z,98258.03
2019-05-28T20:24:41.562Z,98268.36
2019-05-28T20:27:10.793Z,98271.14
2019-05-28T20:29:40.065Z,98269.92
2019-05-28T20:32:09.507Z,98279.70
2019-05-28T20:34:38.928Z,98267.61
2019-05-28T20:37:08.229Z,98267.50
2019-05-28T20:39:37.489Z,98269.06
2019-05-28T20:42:06.784Z,98279.78
2019-05-28T20:44:36.025Z,98274.62
2019-05-28T20:47:06.839Z,98282.77
2019-05-28T20:49:36.333Z,98275.77
2019-05-28T20:52:05.638Z,98286.52
2019-05-28T20:54:34.816Z,98286.66
2019-05-28T20:57:04.031Z,98292.78
2019-05-28T20:59:33.361Z,98293.45
2019-05-28T21:02:02.635Z,98292.91
2019-05-28T21:04:31.888Z,98298.86
2019-05-28T21:07:01.159Z,98300.75
2019-05-28T21:09:30.380Z,98311.94
2019-05-28T21:11:59.611Z,98310.02
2019-05-28T21:14:28.878Z,98310.14
2019-05-28T21:16:59.191Z,98310.44
2019-05-28T21:19:28.480Z,98304.04
2019-05-28T21:21:57.894Z,98312.78
2019-05-28T21:24:27.173Z,98316.05
2019-05-28T21:26:56.525Z,98312.02
2019-05-28T21:29:25.798Z,98315.56
2019-05-28T21:31:55.039Z,98318.05
2019-05-28T21:34:24.245Z,98323.05
2019-05-28T21:36:53.440Z,98323.42
2019-05-28T21:39:22.711Z,98326.33
2019-05-28T21:41:51.950Z,98322.92
2019-05-28T21:44:21.137Z,98329.94
2019-05-28T21:46:50.415Z,98326.53
2019-05-28T21:49:19.698Z,98334.56
2019-05-28T21:51:48.927Z,98333.39
2019-05-28T21:54:18.138Z,98339.35
2019-05-28T21:56:47.361Z,98338.28
2019-05-28T21:59:16.615Z,98350.52
2019-05-28T22:01:45.956Z,98349.16
2019-05-28T22:04:15.175Z,98350.50
2019-05-28T22:06:44.689Z,98350.08
2019-05-28T22:09:13.895Z,98354.02
2019-05-28T22:11:43.308Z,98351.76
2019-05-28T22:14:12.890Z,98360.33
2019-05-28T22:16:42.041Z,98360.95
2019-05-28T22:19:11.320Z,98361.00
2019-05-28T22:21:40.518Z,98366.94
2019-05-28T22:24:09.705Z,98368.90
2019-05-28T22:26:38.970Z,98364.31
2019-05-28T22:29:08.148Z,98374.22
2019-05-28T22:31:37.386Z,98369.70
2019-05-28T22:34:07.304Z,98372.73
2019-05-28T22:36:36.680Z,98371.05
2019-05-28T22:39:08.695Z,98372.04
2019-05-28T22:41:39.495Z,98370.53
2019-05-28T22:44:08.902Z,98372.66
2019-05-28T22:46:38.356Z,98370.71
2019-05-28T22:49:07.650Z,98377.75
2019-05-28T22:51:36.899Z,98380.31
2019-05-28T22:54:06.355Z,98375.52
2019-05-28T22:56:35.600Z,98380.36
2019-05-28T22:59:04.766Z,98377.78
2019-05-28T23:01:33.984Z,98383.36
2019-05-28T23:04:03.191Z,98395.45
2019-05-28T23:06:32.360Z,98392.50
2019-05-28T23:09:01.526Z,98396.16
2019-05-28T23:11:30.728Z,98398.45
2019-05-28T23:13:59.939Z,98399.02
2019-05-28T23:16:29.150Z,98397.09
2019-05-28T23:18:58.294Z,98399.27
2019-05-28T23:21:27.564Z,98404.48
2019-05-28T23:23:56.827Z,98403.36
2019-05-28T23:26:26.300Z,98396.25
2019-05-28T23:28:55.496Z,98406.64
2019-05-28T23:31:24.712Z,98402.84
2019-05-28T23:33:53.891Z,98407.70
2019-05-28T23:36:23.118Z,98403.20
2019-05-28T23:38:52.398Z,98413.55
2019-05-28T23:41:21.569Z,98418.05
2019-05-28T23:44:01.409Z,98418.13
2019-05-28T23:46:21.687Z,98423.91
2019-05-28T23:48:50.964Z,98422.03
2019-05-28T23:51:20.152Z,98423.63
2019-05-28T23:53:49.351Z,98421.36
2019-05-28T23:56:18.581Z,98417.79
2019-05-28T23:58:47.800Z,98424.75
